sensor_id;sensor_type;location;lat;lon;timestamp;P1;durP1;ratioP1;P2;durP2;ratioP2
6438;SDS011;3252;52.540;13.290;2023-08-07T00:01:20;6.47;;;3.20;;
6438;SDS011;3252;52.540;13.290;2023-08-07T00:03:34;7.47;;;3.07;;
6438;SDS011;3252;52.540;13.290;2023-08-07T00:05:39;8.60;;;3.00;;
6438;SDS011;3252;52.540;13.290;2023-08-07T00:07:47;3.57;;;2.97;;
6438;SDS011;3252;52.540;13.290;2023-08-07T00:09:58;4.57;;;3.10;;
6438;SDS011;3252;52.540;13.290;2023-08-07T00:12:12;6.07;;;2.90;;
6438;SDS011;3252;52.540;13.290;2023-08-07T00:14:19;6.70;;;3.40;;
6438;SDS011;3252;52.540;13.290;2023-08-07T00:16:47;5.80;;;3.37;;
6438;SDS011;3252;52.540;13.290;2023-08-07T00:19:01;7.77;;;3.53;;
6438;SDS011;3252;52.540;13.290;2023-08-07T00:21:28;11.47;;;3.43;;
6438;SDS011;3252;52.540;13.290;2023-08-07T00:23:36;6.63;;;3.37;;
6438;SDS011;3252;52.540;13.290;2023-08-07T00:25:48;7.33;;;3.30;;
6438;SDS011;3252;52.540;13.290;2023-08-07T00:27:56;7.37;;;3.60;;
6438;SDS011;3252;52.540;13.290;2023-08-07T00:31:24;7.87;;;3.20;;
6438;SDS011;3252;52.540;13.290;2023-08-07T00:32:54;10.53;;;4.03;;
6438;SDS011;3252;52.540;13.290;2023-08-07T00:35:19;6.83;;;3.33;;
6438;SDS011;3252;52.540;13.290;2023-08-07T00:37:51;6.40;;;3.10;;
6438;SDS011;3252;52.540;13.290;2023-08-07T00:39:58;7.40;;;3.40;;
6438;SDS011;3252;52.540;13.290;2023-08-07T00:42:07;6.63;;;3.47;;
6438;SDS011;3252;52.540;13.290;2023-08-07T00:44:26;8.33;;;3.40;;
6438;SDS011;3252;52.540;13.290;2023-08-07T00:46:39;8.50;;;3.87;;
6438;SDS011;3252;52.540;13.290;2023-08-07T00:48:47;8.53;;;3.70;;
6438;SDS011;3252;52.540;13.290;2023-08-07T00:50:56;12.30;;;3.10;;
6438;SDS011;3252;52.540;13.290;2023-08-07T00:53:13;10.10;;;3.10;;
6438;SDS011;3252;52.540;13.290;2023-08-07T00:55:18;7.30;;;3.50;;
6438;SDS011;3252;52.540;13.290;2023-08-07T00:57:48;5.93;;;3.30;;
6438;SDS011;3252;52.540;13.290;2023-08-07T00:59:55;6.80;;;3.17;;
6438;SDS011;3252;52.540;13.290;2023-08-07T01:01:59;8.70;;;3.10;;
6438;SDS011;3252;52.540;13.290;2023-08-07T01:04:02;9.23;;;3.37;;
6438;SDS011;3252;52.540;13.290;2023-08-07T01:06:13;5.23;;;2.87;;
6438;SDS011;3252;52.540;13.290;2023-08-07T01:08:16;6.57;;;3.20;;
6438;SDS011;3252;52.540;13.290;2023-08-07T01:10:34;5.50;;;3.20;;
6438;SDS011;3252;52.540;13.290;2023-08-07T01:12:48;7.37;;;3.17;;
6438;SDS011;3252;52.540;13.290;2023-08-07T01:15:08;7.70;;;3.70;;
6438;SDS011;3252;52.540;13.290;2023-08-07T01:17:27;7.20;;;3.20;;
6438;SDS011;3252;52.540;13.290;2023-08-07T01:19:35;6.47;;;3.30;;
6438;SDS011;3252;52.540;13.290;2023-08-07T01:21:46;9.70;;;3.47;;
6438;SDS011;3252;52.540;13.290;2023-08-07T01:23:51;8.03;;;3.10;;
6438;SDS011;3252;52.540;13.290;2023-08-07T01:26:04;7.10;;;3.17;;
6438;SDS011;3252;52.540;13.290;2023-08-07T01:28:19;5.73;;;3.17;;
6438;SDS011;3252;52.540;13.290;2023-08-07T01:30:53;11.70;;;3.57;;
6438;SDS011;3252;52.540;13.290;2023-08-07T01:33:15;7.77;;;3.17;;
6438;SDS011;3252;52.540;13.290;2023-08-07T01:35:23;4.17;;;3.10;;
6438;SDS011;3252;52.540;13.290;2023-08-07T01:37:37;9.60;;;3.00;;
6438;SDS011;3252;52.540;13.290;2023-08-07T01:39:48;7.40;;;3.33;;
6438;SDS011;3252;52.540;13.290;2023-08-07T01:41:59;5.63;;;3.40;;
6438;SDS011;3252;52.540;13.290;2023-08-07T01:44:19;8.07;;;3.50;;
6438;SDS011;3252;52.540;13.290;2023-08-07T01:46:39;7.83;;;3.57;;
6438;SDS011;3252;52.540;13.290;2023-08-07T01:51:13;11.70;;;3.70;;
6438;SDS011;3252;52.540;13.290;2023-08-07T01:53:27;8.83;;;3.37;;
6438;SDS011;3252;52.540;13.290;2023-08-07T01:55:40;9.37;;;3.63;;
6438;SDS011;3252;52.540;13.290;2023-08-07T01:57:52;8.10;;;3.73;;
6438;SDS011;3252;52.540;13.290;2023-08-07T01:59:59;6.50;;;3.50;;
6438;SDS011;3252;52.540;13.290;2023-08-07T02:02:20;7.27;;;3.47;;
6438;SDS011;3252;52.540;13.290;2023-08-07T02:04:28;8.67;;;3.67;;
6438;SDS011;3252;52.540;13.290;2023-08-07T02:07:13;11.10;;;3.70;;
6438;SDS011;3252;52.540;13.290;2023-08-07T02:09:46;9.33;;;3.70;;
6438;SDS011;3252;52.540;13.290;2023-08-07T02:11:59;5.37;;;3.63;;
6438;SDS011;3252;52.540;13.290;2023-08-07T02:14:12;10.57;;;3.57;;
6438;SDS011;3252;52.540;13.290;2023-08-07T02:16:22;5.87;;;3.30;;
6438;SDS011;3252;52.540;13.290;2023-08-07T02:18:37;7.37;;;3.23;;
6438;SDS011;3252;52.540;13.290;2023-08-07T02:20:47;7.80;;;3.83;;
6438;SDS011;3252;52.540;13.290;2023-08-07T02:23:27;7.37;;;3.40;;
6438;SDS011;3252;52.540;13.290;2023-08-07T02:25:38;6.13;;;3.20;;
6438;SDS011;3252;52.540;13.290;2023-08-07T02:28:04;13.10;;;3.73;;
6438;SDS011;3252;52.540;13.290;2023-08-07T02:30:40;12.10;;;4.10;;
6438;SDS011;3252;52.540;13.290;2023-08-07T02:33:01;6.43;;;3.60;;
6438;SDS011;3252;52.540;13.290;2023-08-07T02:35:16;8.60;;;3.90;;
6438;SDS011;3252;52.540;13.290;2023-08-07T02:37:22;10.23;;;4.40;;
6438;SDS011;3252;52.540;13.290;2023-08-07T02:39:25;10.47;;;3.97;;
6438;SDS011;3252;52.540;13.290;2023-08-07T02:41:34;9.03;;;4.10;;
6438;SDS011;3252;52.540;13.290;2023-08-07T02:43:39;8.23;;;3.93;;
6438;SDS011;3252;52.540;13.290;2023-08-07T02:45:56;8.40;;;3.93;;
6438;SDS011;3252;52.540;13.290;2023-08-07T02:48:02;13.43;;;5.00;;
6438;SDS011;3252;52.540;13.290;2023-08-07T02:50:14;13.67;;;4.30;;
6438;SDS011;3252;52.540;13.290;2023-08-07T02:52:25;8.53;;;4.03;;
6438;SDS011;3252;52.540;13.290;2023-08-07T02:54:40;11.30;;;4.07;;
6438;SDS011;3252;52.540;13.290;2023-08-07T02:56:59;7.60;;;4.20;;
6438;SDS011;3252;52.540;13.290;2023-08-07T02:59:28;8.87;;;4.30;;
6438;SDS011;3252;52.540;13.290;2023-08-07T03:01:36;14.10;;;4.60;;
6438;SDS011;3252;52.540;13.290;2023-08-07T03:03:51;10.30;;;4.20;;
6438;SDS011;3252;52.540;13.290;2023-08-07T03:05:56;10.23;;;4.20;;
6438;SDS011;3252;52.540;13.290;2023-08-07T03:10:41;8.47;;;4.60;;
6438;SDS011;3252;52.540;13.290;2023-08-07T03:13:20;12.57;;;4.70;;
6438;SDS011;3252;52.540;13.290;2023-08-07T03:15:42;9.40;;;5.27;;
6438;SDS011;3252;52.540;13.290;2023-08-07T03:18:16;8.20;;;4.80;;
6438;SDS011;3252;52.540;13.290;2023-08-07T03:20:33;12.60;;;4.63;;
6438;SDS011;3252;52.540;13.290;2023-08-07T03:22:47;7.67;;;4.50;;
6438;SDS011;3252;52.540;13.290;2023-08-07T03:26:01;11.43;;;5.40;;
6438;SDS011;3252;52.540;13.290;2023-08-07T03:28:09;13.30;;;4.80;;
6438;SDS011;3252;52.540;13.290;2023-08-07T03:30:27;8.40;;;4.77;;
6438;SDS011;3252;52.540;13.290;2023-08-07T03:32:34;9.97;;;4.73;;
6438;SDS011;3252;52.540;13.290;2023-08-07T03:35:45;9.90;;;4.27;;
6438;SDS011;3252;52.540;13.290;2023-08-07T03:38:22;10.00;;;4.83;;
6438;SDS011;3252;52.540;13.290;2023-08-07T03:40:45;10.43;;;4.83;;
6438;SDS011;3252;52.540;13.290;2023-08-07T03:43:01;10.30;;;4.60;;
6438;SDS011;3252;52.540;13.290;2023-08-07T03:47:58;11.37;;;5.40;;
6438;SDS011;3252;52.540;13.290;2023-08-07T03:50:12;14.60;;;5.27;;
6438;SDS011;3252;52.540;13.290;2023-08-07T03:52:23;13.73;;;5.30;;
6438;SDS011;3252;52.540;13.290;2023-08-07T03:55:02;8.33;;;4.80;;
6438;SDS011;3252;52.540;13.290;2023-08-07T03:57:12;12.87;;;4.90;;
6438;SDS011;3252;52.540;13.290;2023-08-07T03:59:31;10.20;;;4.87;;
6438;SDS011;3252;52.540;13.290;2023-08-07T04:01:44;7.73;;;4.83;;
6438;SDS011;3252;52.540;13.290;2023-08-07T04:03:55;8.33;;;4.57;;
6438;SDS011;3252;52.540;13.290;2023-08-07T04:06:46;8.10;;;4.60;;
6438;SDS011;3252;52.540;13.290;2023-08-07T04:08:33;10.30;;;4.57;;
6438;SDS011;3252;52.540;13.290;2023-08-07T04:10:41;13.70;;;4.90;;
6438;SDS011;3252;52.540;13.290;2023-08-07T04:12:55;9.83;;;4.80;;
6438;SDS011;3252;52.540;13.290;2023-08-07T04:15:06;14.57;;;4.97;;
6438;SDS011;3252;52.540;13.290;2023-08-07T04:17:46;9.37;;;5.13;;
6438;SDS011;3252;52.540;13.290;2023-08-07T04:20:16;10.30;;;5.43;;
6438;SDS011;3252;52.540;13.290;2023-08-07T04:22:56;10.07;;;5.00;;
6438;SDS011;3252;52.540;13.290;2023-08-07T04:25:18;10.33;;;4.40;;
6438;SDS011;3252;52.540;13.290;2023-08-07T04:27:23;9.53;;;5.20;;
6438;SDS011;3252;52.540;13.290;2023-08-07T04:29:33;10.20;;;4.93;;
6438;SDS011;3252;52.540;13.290;2023-08-07T04:31:43;7.47;;;4.07;;
6438;SDS011;3252;52.540;13.290;2023-08-07T04:33:58;18.83;;;5.37;;
6438;SDS011;3252;52.540;13.290;2023-08-07T04:36:06;10.13;;;5.10;;
6438;SDS011;3252;52.540;13.290;2023-08-07T04:38:16;12.23;;;5.03;;
6438;SDS011;3252;52.540;13.290;2023-08-07T04:40:23;9.90;;;4.10;;
6438;SDS011;3252;52.540;13.290;2023-08-07T04:42:39;8.33;;;4.03;;
6438;SDS011;3252;52.540;13.290;2023-08-07T04:45:05;8.40;;;3.90;;
6438;SDS011;3252;52.540;13.290;2023-08-07T04:47:28;10.93;;;4.20;;
6438;SDS011;3252;52.540;13.290;2023-08-07T04:49:50;10.90;;;4.47;;
6438;SDS011;3252;52.540;13.290;2023-08-07T04:52:20;5.53;;;3.90;;
6438;SDS011;3252;52.540;13.290;2023-08-07T04:57:55;7.27;;;3.90;;
6438;SDS011;3252;52.540;13.290;2023-08-07T05:00:25;8.47;;;3.97;;
6438;SDS011;3252;52.540;13.290;2023-08-07T05:05:39;8.87;;;3.87;;
6438;SDS011;3252;52.540;13.290;2023-08-07T05:08:18;9.73;;;4.27;;
6438;SDS011;3252;52.540;13.290;2023-08-07T05:10:24;10.37;;;3.93;;
6438;SDS011;3252;52.540;13.290;2023-08-07T05:12:39;8.03;;;4.00;;
6438;SDS011;3252;52.540;13.290;2023-08-07T05:15:16;9.97;;;3.80;;
6438;SDS011;3252;52.540;13.290;2023-08-07T05:17:23;7.20;;;3.73;;
6438;SDS011;3252;52.540;13.290;2023-08-07T05:19:49;5.13;;;3.50;;
6438;SDS011;3252;52.540;13.290;2023-08-07T05:24:29;8.37;;;3.60;;
6438;SDS011;3252;52.540;13.290;2023-08-07T05:26:52;6.50;;;3.40;;
6438;SDS011;3252;52.540;13.290;2023-08-07T05:29:12;7.77;;;3.27;;
6438;SDS011;3252;52.540;13.290;2023-08-07T05:31:32;10.07;;;3.40;;
6438;SDS011;3252;52.540;13.290;2023-08-07T05:34:08;7.03;;;3.70;;
6438;SDS011;3252;52.540;13.290;2023-08-07T05:36:23;10.13;;;6.30;;
6438;SDS011;3252;52.540;13.290;2023-08-07T05:38:40;8.67;;;3.83;;
6438;SDS011;3252;52.540;13.290;2023-08-07T05:41:09;9.77;;;5.10;;
6438;SDS011;3252;52.540;13.290;2023-08-07T05:43:46;6.30;;;4.00;;
6438;SDS011;3252;52.540;13.290;2023-08-07T05:45:57;8.47;;;4.23;;
6438;SDS011;3252;52.540;13.290;2023-08-07T05:48:10;6.53;;;3.63;;
6438;SDS011;3252;52.540;13.290;2023-08-07T05:50:29;11.30;;;3.50;;
6438;SDS011;3252;52.540;13.290;2023-08-07T05:52:57;7.70;;;3.47;;
6438;SDS011;3252;52.540;13.290;2023-08-07T05:55:08;7.50;;;3.17;;
6438;SDS011;3252;52.540;13.290;2023-08-07T05:57:22;7.97;;;3.53;;
6438;SDS011;3252;52.540;13.290;2023-08-07T05:59:30;8.47;;;3.67;;
6438;SDS011;3252;52.540;13.290;2023-08-07T06:01:40;9.03;;;3.57;;
6438;SDS011;3252;52.540;13.290;2023-08-07T06:03:51;9.13;;;3.23;;
6438;SDS011;3252;52.540;13.290;2023-08-07T06:06:05;9.97;;;3.33;;
6438;SDS011;3252;52.540;13.290;2023-08-07T06:08:10;10.33;;;3.60;;
6438;SDS011;3252;52.540;13.290;2023-08-07T06:10:38;7.60;;;3.40;;
6438;SDS011;3252;52.540;13.290;2023-08-07T06:12:49;7.53;;;3.90;;
6438;SDS011;3252;52.540;13.290;2023-08-07T06:14:54;12.87;;;5.10;;
6438;SDS011;3252;52.540;13.290;2023-08-07T06:16:58;10.10;;;4.90;;
6438;SDS011;3252;52.540;13.290;2023-08-07T06:19:02;10.20;;;3.67;;
6438;SDS011;3252;52.540;13.290;2023-08-07T06:23:48;5.10;;;2.80;;
6438;SDS011;3252;52.540;13.290;2023-08-07T06:25:58;4.90;;;2.40;;
6438;SDS011;3252;52.540;13.290;2023-08-07T06:28:08;8.53;;;2.80;;
6438;SDS011;3252;52.540;13.290;2023-08-07T06:31:32;5.43;;;2.87;;
6438;SDS011;3252;52.540;13.290;2023-08-07T06:35:14;7.07;;;2.50;;
6438;SDS011;3252;52.540;13.290;2023-08-07T06:37:25;5.40;;;2.17;;
6438;SDS011;3252;52.540;13.290;2023-08-07T06:39:35;6.90;;;2.03;;
6438;SDS011;3252;52.540;13.290;2023-08-07T06:41:39;4.00;;;2.23;;
6438;SDS011;3252;52.540;13.290;2023-08-07T06:43:54;7.37;;;2.37;;
6438;SDS011;3252;52.540;13.290;2023-08-07T06:46:01;6.90;;;2.60;;
6438;SDS011;3252;52.540;13.290;2023-08-07T06:48:41;5.73;;;2.40;;
6438;SDS011;3252;52.540;13.290;2023-08-07T06:50:52;7.43;;;2.20;;
6438;SDS011;3252;52.540;13.290;2023-08-07T06:52:55;6.47;;;1.90;;
6438;SDS011;3252;52.540;13.290;2023-08-07T06:54:58;5.43;;;2.20;;
6438;SDS011;3252;52.540;13.290;2023-08-07T06:57:03;6.30;;;2.30;;
6438;SDS011;3252;52.540;13.290;2023-08-07T06:59:10;3.73;;;1.80;;
6438;SDS011;3252;52.540;13.290;2023-08-07T07:01:15;3.47;;;2.30;;
6438;SDS011;3252;52.540;13.290;2023-08-07T07:03:24;7.43;;;2.40;;
6438;SDS011;3252;52.540;13.290;2023-08-07T07:05:28;5.07;;;2.10;;
6438;SDS011;3252;52.540;13.290;2023-08-07T07:07:37;3.77;;;1.97;;
6438;SDS011;3252;52.540;13.290;2023-08-07T07:09:42;5.57;;;2.30;;
6438;SDS011;3252;52.540;13.290;2023-08-07T07:12:30;5.97;;;2.07;;
6438;SDS011;3252;52.540;13.290;2023-08-07T07:14:37;3.63;;;1.77;;
6438;SDS011;3252;52.540;13.290;2023-08-07T07:16:43;11.00;;;2.23;;
6438;SDS011;3252;52.540;13.290;2023-08-07T07:18:46;5.77;;;1.87;;
6438;SDS011;3252;52.540;13.290;2023-08-07T07:21:08;4.17;;;1.90;;
6438;SDS011;3252;52.540;13.290;2023-08-07T07:23:12;4.10;;;1.77;;
6438;SDS011;3252;52.540;13.290;2023-08-07T07:25:23;5.13;;;1.83;;
6438;SDS011;3252;52.540;13.290;2023-08-07T07:27:33;7.30;;;2.03;;
6438;SDS011;3252;52.540;13.290;2023-08-07T07:29:43;5.53;;;2.00;;
6438;SDS011;3252;52.540;13.290;2023-08-07T07:31:52;4.00;;;1.80;;
6438;SDS011;3252;52.540;13.290;2023-08-07T07:33:57;3.27;;;1.80;;
6438;SDS011;3252;52.540;13.290;2023-08-07T07:36:05;5.23;;;2.00;;
6438;SDS011;3252;52.540;13.290;2023-08-07T07:38:11;3.80;;;1.50;;
6438;SDS011;3252;52.540;13.290;2023-08-07T07:40:19;4.67;;;1.73;;
6438;SDS011;3252;52.540;13.290;2023-08-07T07:42:26;5.30;;;1.73;;
6438;SDS011;3252;52.540;13.290;2023-08-07T07:44:33;5.77;;;2.00;;
6438;SDS011;3252;52.540;13.290;2023-08-07T07:46:40;3.90;;;1.80;;
6438;SDS011;3252;52.540;13.290;2023-08-07T07:48:51;7.10;;;1.90;;
6438;SDS011;3252;52.540;13.290;2023-08-07T07:50:57;3.60;;;1.80;;
6438;SDS011;3252;52.540;13.290;2023-08-07T07:53:04;8.97;;;2.03;;
6438;SDS011;3252;52.540;13.290;2023-08-07T07:55:12;5.47;;;2.07;;
6438;SDS011;3252;52.540;13.290;2023-08-07T07:57:16;6.10;;;2.03;;
6438;SDS011;3252;52.540;13.290;2023-08-07T07:59:19;5.23;;;1.80;;
6438;SDS011;3252;52.540;13.290;2023-08-07T08:01:26;3.30;;;1.77;;
6438;SDS011;3252;52.540;13.290;2023-08-07T08:03:43;4.20;;;2.00;;
6438;SDS011;3252;52.540;13.290;2023-08-07T08:05:48;7.17;;;2.07;;
6438;SDS011;3252;52.540;13.290;2023-08-07T08:07:52;5.17;;;1.80;;
6438;SDS011;3252;52.540;13.290;2023-08-07T08:09:56;6.27;;;1.93;;
6438;SDS011;3252;52.540;13.290;2023-08-07T08:11:59;8.80;;;2.07;;
6438;SDS011;3252;52.540;13.290;2023-08-07T08:14:05;8.00;;;1.83;;
6438;SDS011;3252;52.540;13.290;2023-08-07T08:16:10;7.37;;;1.93;;
6438;SDS011;3252;52.540;13.290;2023-08-07T08:18:17;3.47;;;1.87;;
6438;SDS011;3252;52.540;13.290;2023-08-07T08:20:21;5.90;;;1.93;;
6438;SDS011;3252;52.540;13.290;2023-08-07T08:22:23;6.50;;;1.93;;
6438;SDS011;3252;52.540;13.290;2023-08-07T08:24:32;3.70;;;1.83;;
6438;SDS011;3252;52.540;13.290;2023-08-07T08:26:39;5.27;;;2.07;;
6438;SDS011;3252;52.540;13.290;2023-08-07T08:28:57;5.13;;;2.20;;
6438;SDS011;3252;52.540;13.290;2023-08-07T08:31:01;7.10;;;2.40;;
6438;SDS011;3252;52.540;13.290;2023-08-07T08:33:02;11.17;;;2.43;;
6438;SDS011;3252;52.540;13.290;2023-08-07T08:35:17;7.03;;;2.20;;
6438;SDS011;3252;52.540;13.290;2023-08-07T08:37:20;5.67;;;2.00;;
6438;SDS011;3252;52.540;13.290;2023-08-07T08:39:23;3.63;;;1.93;;
6438;SDS011;3252;52.540;13.290;2023-08-07T08:41:32;4.83;;;2.20;;
6438;SDS011;3252;52.540;13.290;2023-08-07T08:43:42;6.63;;;2.20;;
6438;SDS011;3252;52.540;13.290;2023-08-07T08:45:51;6.83;;;1.90;;
6438;SDS011;3252;52.540;13.290;2023-08-07T08:47:57;11.27;;;1.97;;
6438;SDS011;3252;52.540;13.290;2023-08-07T08:50:14;7.17;;;2.00;;
6438;SDS011;3252;52.540;13.290;2023-08-07T08:52:19;5.67;;;1.80;;
6438;SDS011;3252;52.540;13.290;2023-08-07T08:54:23;6.33;;;2.20;;
6438;SDS011;3252;52.540;13.290;2023-08-07T08:56:26;3.97;;;1.87;;
6438;SDS011;3252;52.540;13.290;2023-08-07T08:58:33;4.63;;;1.63;;
6438;SDS011;3252;52.540;13.290;2023-08-07T09:00:40;4.47;;;1.97;;
6438;SDS011;3252;52.540;13.290;2023-08-07T09:02:45;5.90;;;1.80;;
6438;SDS011;3252;52.540;13.290;2023-08-07T09:04:52;9.63;;;1.83;;
6438;SDS011;3252;52.540;13.290;2023-08-07T09:06:57;6.90;;;2.13;;
6438;SDS011;3252;52.540;13.290;2023-08-07T09:09:02;3.40;;;1.60;;
6438;SDS011;3252;52.540;13.290;2023-08-07T09:11:16;7.23;;;1.80;;
6438;SDS011;3252;52.540;13.290;2023-08-07T09:13:26;4.63;;;1.77;;
6438;SDS011;3252;52.540;13.290;2023-08-07T09:15:49;5.00;;;1.60;;
6438;SDS011;3252;52.540;13.290;2023-08-07T09:17:56;6.87;;;1.80;;
6438;SDS011;3252;52.540;13.290;2023-08-07T09:20:02;7.47;;;2.37;;
6438;SDS011;3252;52.540;13.290;2023-08-07T09:22:28;6.20;;;1.93;;
6438;SDS011;3252;52.540;13.290;2023-08-07T09:24:34;10.47;;;2.63;;
6438;SDS011;3252;52.540;13.290;2023-08-07T09:26:45;4.43;;;1.80;;
6438;SDS011;3252;52.540;13.290;2023-08-07T09:28:57;6.00;;;2.00;;
6438;SDS011;3252;52.540;13.290;2023-08-07T09:31:01;5.17;;;1.90;;
6438;SDS011;3252;52.540;13.290;2023-08-07T09:33:12;6.07;;;1.80;;
6438;SDS011;3252;52.540;13.290;2023-08-07T09:35:17;2.37;;;1.60;;
6438;SDS011;3252;52.540;13.290;2023-08-07T09:37:32;5.90;;;1.83;;
6438;SDS011;3252;52.540;13.290;2023-08-07T09:39:37;3.40;;;1.63;;
6438;SDS011;3252;52.540;13.290;2023-08-07T09:41:42;7.43;;;1.70;;
6438;SDS011;3252;52.540;13.290;2023-08-07T09:43:49;6.30;;;1.93;;
6438;SDS011;3252;52.540;13.290;2023-08-07T09:45:52;4.13;;;1.80;;
6438;SDS011;3252;52.540;13.290;2023-08-07T09:48:07;5.87;;;2.10;;
6438;SDS011;3252;52.540;13.290;2023-08-07T09:50:19;5.70;;;1.83;;
6438;SDS011;3252;52.540;13.290;2023-08-07T09:52:28;7.00;;;1.90;;
6438;SDS011;3252;52.540;13.290;2023-08-07T09:54:40;5.10;;;1.77;;
6438;SDS011;3252;52.540;13.290;2023-08-07T09:56:44;4.90;;;1.53;;
6438;SDS011;3252;52.540;13.290;2023-08-07T09:58:51;6.93;;;1.80;;
6438;SDS011;3252;52.540;13.290;2023-08-07T10:00:58;4.10;;;1.97;;
6438;SDS011;3252;52.540;13.290;2023-08-07T10:03:03;6.13;;;2.00;;
6438;SDS011;3252;52.540;13.290;2023-08-07T10:05:10;7.33;;;2.00;;
6438;SDS011;3252;52.540;13.290;2023-08-07T10:07:15;6.20;;;2.00;;
6438;SDS011;3252;52.540;13.290;2023-08-07T10:09:20;4.60;;;1.73;;
6438;SDS011;3252;52.540;13.290;2023-08-07T10:11:25;4.83;;;1.80;;
6438;SDS011;3252;52.540;13.290;2023-08-07T10:13:30;4.83;;;1.73;;
6438;SDS011;3252;52.540;13.290;2023-08-07T10:15:36;9.63;;;2.03;;
6438;SDS011;3252;52.540;13.290;2023-08-07T10:17:41;5.57;;;1.80;;
6438;SDS011;3252;52.540;13.290;2023-08-07T10:19:48;4.40;;;1.80;;
6438;SDS011;3252;52.540;13.290;2023-08-07T10:21:51;3.27;;;1.40;;
6438;SDS011;3252;52.540;13.290;2023-08-07T10:23:56;7.73;;;1.53;;
6438;SDS011;3252;52.540;13.290;2023-08-07T10:26:02;3.07;;;1.93;;
6438;SDS011;3252;52.540;13.290;2023-08-07T10:28:10;3.37;;;1.70;;
6438;SDS011;3252;52.540;13.290;2023-08-07T10:30:19;7.83;;;2.87;;
6438;SDS011;3252;52.540;13.290;2023-08-07T10:32:29;4.83;;;1.97;;
6438;SDS011;3252;52.540;13.290;2023-08-07T10:34:37;7.50;;;2.03;;
6438;SDS011;3252;52.540;13.290;2023-08-07T10:36:45;7.60;;;1.77;;
6438;SDS011;3252;52.540;13.290;2023-08-07T10:38:48;2.90;;;1.60;;
6438;SDS011;3252;52.540;13.290;2023-08-07T10:40:59;4.33;;;2.10;;
6438;SDS011;3252;52.540;13.290;2023-08-07T10:43:13;6.40;;;2.00;;
6438;SDS011;3252;52.540;13.290;2023-08-07T10:45:25;5.30;;;1.83;;
6438;SDS011;3252;52.540;13.290;2023-08-07T10:47:38;8.43;;;2.10;;
6438;SDS011;3252;52.540;13.290;2023-08-07T10:49:42;4.47;;;1.93;;
6438;SDS011;3252;52.540;13.290;2023-08-07T10:51:49;10.03;;;1.80;;
6438;SDS011;3252;52.540;13.290;2023-08-07T10:53:53;7.17;;;2.00;;
6438;SDS011;3252;52.540;13.290;2023-08-07T10:55:57;7.17;;;1.80;;
6438;SDS011;3252;52.540;13.290;2023-08-07T10:58:00;6.70;;;2.00;;
6438;SDS011;3252;52.540;13.290;2023-08-07T11:00:04;8.93;;;2.30;;
6438;SDS011;3252;52.540;13.290;2023-08-07T11:02:11;4.40;;;1.80;;
6438;SDS011;3252;52.540;13.290;2023-08-07T11:04:23;5.30;;;1.87;;
6438;SDS011;3252;52.540;13.290;2023-08-07T11:06:27;8.47;;;1.80;;
6438;SDS011;3252;52.540;13.290;2023-08-07T11:08:34;4.57;;;2.00;;
6438;SDS011;3252;52.540;13.290;2023-08-07T11:10:37;5.00;;;1.50;;
6438;SDS011;3252;52.540;13.290;2023-08-07T11:12:40;5.47;;;1.80;;
6438;SDS011;3252;52.540;13.290;2023-08-07T11:14:46;6.57;;;1.87;;
6438;SDS011;3252;52.540;13.290;2023-08-07T11:16:52;5.10;;;1.80;;
6438;SDS011;3252;52.540;13.290;2023-08-07T11:18:55;4.90;;;1.80;;
6438;SDS011;3252;52.540;13.290;2023-08-07T11:20:59;5.43;;;1.73;;
6438;SDS011;3252;52.540;13.290;2023-08-07T11:23:02;6.10;;;2.10;;
6438;SDS011;3252;52.540;13.290;2023-08-07T11:25:07;6.77;;;2.10;;
6438;SDS011;3252;52.540;13.290;2023-08-07T11:27:21;5.10;;;2.10;;
6438;SDS011;3252;52.540;13.290;2023-08-07T11:29:27;8.57;;;2.10;;
6438;SDS011;3252;52.540;13.290;2023-08-07T11:31:31;4.87;;;1.97;;
6438;SDS011;3252;52.540;13.290;2023-08-07T11:33:47;7.03;;;1.97;;
6438;SDS011;3252;52.540;13.290;2023-08-07T11:36:21;6.10;;;1.97;;
6438;SDS011;3252;52.540;13.290;2023-08-07T11:38:32;4.93;;;1.83;;
6438;SDS011;3252;52.540;13.290;2023-08-07T11:40:35;6.67;;;2.23;;
6438;SDS011;3252;52.540;13.290;2023-08-07T11:42:37;6.90;;;2.00;;
6438;SDS011;3252;52.540;13.290;2023-08-07T11:44:40;15.33;;;2.53;;
6438;SDS011;3252;52.540;13.290;2023-08-07T11:46:42;10.30;;;5.40;;
6438;SDS011;3252;52.540;13.290;2023-08-07T11:48:45;6.83;;;2.17;;
6438;SDS011;3252;52.540;13.290;2023-08-07T11:50:49;5.63;;;2.03;;
6438;SDS011;3252;52.540;13.290;2023-08-07T11:52:53;7.33;;;1.87;;
6438;SDS011;3252;52.540;13.290;2023-08-07T11:55:01;8.43;;;2.27;;
6438;SDS011;3252;52.540;13.290;2023-08-07T11:57:15;6.30;;;1.70;;
6438;SDS011;3252;52.540;13.290;2023-08-07T11:59:18;7.23;;;1.90;;
6438;SDS011;3252;52.540;13.290;2023-08-07T12:01:24;5.07;;;2.20;;
6438;SDS011;3252;52.540;13.290;2023-08-07T12:03:28;7.60;;;2.10;;
6438;SDS011;3252;52.540;13.290;2023-08-07T12:05:37;5.80;;;2.00;;
6438;SDS011;3252;52.540;13.290;2023-08-07T12:07:43;4.20;;;1.77;;
6438;SDS011;3252;52.540;13.290;2023-08-07T12:09:47;4.63;;;1.80;;
6438;SDS011;3252;52.540;13.290;2023-08-07T12:11:55;4.73;;;1.83;;
6438;SDS011;3252;52.540;13.290;2023-08-07T12:13:59;10.97;;;2.20;;
6438;SDS011;3252;52.540;13.290;2023-08-07T12:16:03;4.67;;;1.93;;
6438;SDS011;3252;52.540;13.290;2023-08-07T12:18:07;7.27;;;1.70;;
6438;SDS011;3252;52.540;13.290;2023-08-07T12:20:11;5.77;;;2.10;;
6438;SDS011;3252;52.540;13.290;2023-08-07T12:22:19;5.10;;;1.60;;
6438;SDS011;3252;52.540;13.290;2023-08-07T12:24:23;9.70;;;2.30;;
6438;SDS011;3252;52.540;13.290;2023-08-07T12:26:27;6.97;;;2.20;;
6438;SDS011;3252;52.540;13.290;2023-08-07T12:28:30;5.17;;;2.07;;
6438;SDS011;3252;52.540;13.290;2023-08-07T12:30:35;6.87;;;1.70;;
6438;SDS011;3252;52.540;13.290;2023-08-07T12:32:42;4.83;;;2.10;;
6438;SDS011;3252;52.540;13.290;2023-08-07T12:34:45;7.70;;;2.20;;
6438;SDS011;3252;52.540;13.290;2023-08-07T12:36:51;8.20;;;2.40;;
6438;SDS011;3252;52.540;13.290;2023-08-07T12:38:53;11.70;;;2.40;;
6438;SDS011;3252;52.540;13.290;2023-08-07T12:40:58;8.30;;;2.47;;
6438;SDS011;3252;52.540;13.290;2023-08-07T12:43:01;8.07;;;2.50;;
6438;SDS011;3252;52.540;13.290;2023-08-07T12:45:04;9.17;;;2.30;;
6438;SDS011;3252;52.540;13.290;2023-08-07T12:47:08;11.87;;;2.83;;
6438;SDS011;3252;52.540;13.290;2023-08-07T12:49:12;9.10;;;2.50;;
6438;SDS011;3252;52.540;13.290;2023-08-07T12:51:16;7.93;;;2.63;;
6438;SDS011;3252;52.540;13.290;2023-08-07T12:53:19;11.03;;;2.80;;
6438;SDS011;3252;52.540;13.290;2023-08-07T12:55:22;9.47;;;2.53;;
6438;SDS011;3252;52.540;13.290;2023-08-07T12:57:27;7.97;;;2.27;;
6438;SDS011;3252;52.540;13.290;2023-08-07T12:59:28;8.57;;;2.67;;
6438;SDS011;3252;52.540;13.290;2023-08-07T13:01:37;8.53;;;2.40;;
6438;SDS011;3252;52.540;13.290;2023-08-07T13:03:55;10.50;;;2.83;;
6438;SDS011;3252;52.540;13.290;2023-08-07T13:05:59;7.73;;;2.63;;
6438;SDS011;3252;52.540;13.290;2023-08-07T13:08:06;16.33;;;3.20;;
6438;SDS011;3252;52.540;13.290;2023-08-07T13:10:11;11.23;;;2.90;;
6438;SDS011;3252;52.540;13.290;2023-08-07T13:12:16;7.73;;;2.50;;
6438;SDS011;3252;52.540;13.290;2023-08-07T13:14:29;7.00;;;2.37;;
6438;SDS011;3252;52.540;13.290;2023-08-07T13:16:39;9.47;;;2.80;;
6438;SDS011;3252;52.540;13.290;2023-08-07T13:18:43;9.77;;;2.50;;
6438;SDS011;3252;52.540;13.290;2023-08-07T13:20:48;10.97;;;2.57;;
6438;SDS011;3252;52.540;13.290;2023-08-07T13:22:58;8.50;;;2.40;;
6438;SDS011;3252;52.540;13.290;2023-08-07T13:25:07;12.70;;;2.77;;
6438;SDS011;3252;52.540;13.290;2023-08-07T13:27:11;9.00;;;2.67;;
6438;SDS011;3252;52.540;13.290;2023-08-07T13:29:15;8.83;;;2.60;;
6438;SDS011;3252;52.540;13.290;2023-08-07T13:31:20;11.23;;;2.03;;
6438;SDS011;3252;52.540;13.290;2023-08-07T13:33:32;9.67;;;2.30;;
6438;SDS011;3252;52.540;13.290;2023-08-07T13:35:45;8.27;;;2.40;;
6438;SDS011;3252;52.540;13.290;2023-08-07T13:37:52;8.53;;;2.30;;
6438;SDS011;3252;52.540;13.290;2023-08-07T13:39:56;7.43;;;2.10;;
6438;SDS011;3252;52.540;13.290;2023-08-07T13:41:59;9.63;;;2.90;;
6438;SDS011;3252;52.540;13.290;2023-08-07T13:44:04;7.40;;;2.00;;